sensor_id;sensor_type;location;lat;lon;timestamp;P1;durP1;ratioP1;P2;durP2;ratioP2
15183;SDS011;7693;49.266;7.104;2023-11-19T05:38:38;5.60;;;5.20;;
15183;SDS011;7693;49.266;7.104;2023-11-19T05:41:04;5.63;;;5.30;;
15183;SDS011;7693;49.266;7.104;2023-11-19T05:43:30;5.40;;;5.00;;
15183;SDS011;7693;49.266;7.104;2023-11-19T05:45:57;5.60;;;4.87;;
15183;SDS011;7693;49.266;7.104;2023-11-19T05:48:22;4.83;;;4.53;;
15183;SDS011;7693;49.266;7.104;2023-11-19T05:50:49;4.40;;;4.10;;
15183;SDS011;7693;49.266;7.104;2023-11-19T05:53:15;4.23;;;4.03;;
15183;SDS011;7693;49.266;7.104;2023-11-19T05:55:41;4.23;;;4.03;;
15183;SDS011;7693;49.266;7.104;2023-11-19T05:58:24;3.83;;;3.67;;
15183;SDS011;7693;49.266;7.104;2023-11-19T06:00:51;3.90;;;3.60;;
15183;SDS011;7693;49.266;7.104;2023-11-19T06:03:17;4.00;;;3.80;;
15183;SDS011;7693;49.266;7.104;2023-11-19T06:05:46;4.03;;;3.77;;
15183;SDS011;7693;49.266;7.104;2023-11-19T06:08:12;3.90;;;3.70;;
15183;SDS011;7693;49.266;7.104;2023-11-19T06:10:40;3.43;;;3.30;;
15183;SDS011;7693;49.266;7.104;2023-11-19T06:13:06;3.30;;;3.20;;
15183;SDS011;7693;49.266;7.104;2023-11-19T06:15:32;2.70;;;2.70;;
15183;SDS011;7693;49.266;7.104;2023-11-19T06:17:58;2.90;;;2.73;;
15183;SDS011;7693;49.266;7.104;2023-11-19T06:20:26;2.77;;;2.67;;
15183;SDS011;7693;49.266;7.104;2023-11-19T06:22:54;2.70;;;2.60;;
15183;SDS011;7693;49.266;7.104;2023-11-19T06:25:19;2.77;;;2.40;;
15183;SDS011;7693;49.266;7.104;2023-11-19T06:27:45;2.43;;;2.30;;
15183;SDS011;7693;49.266;7.104;2023-11-19T06:30:11;2.50;;;2.40;;
15183;SDS011;7693;49.266;7.104;2023-11-19T06:32:37;3.70;;;2.50;;
15183;SDS011;7693;49.266;7.104;2023-11-19T06:35:03;2.67;;;2.50;;
15183;SDS011;7693;49.266;7.104;2023-11-19T06:37:32;2.50;;;2.40;;
15183;SDS011;7693;49.266;7.104;2023-11-19T06:39:57;2.43;;;2.33;;
15183;SDS011;7693;49.266;7.104;2023-11-19T06:42:24;2.77;;;2.67;;
15183;SDS011;7693;49.266;7.104;2023-11-19T06:44:49;3.03;;;2.90;;
15183;SDS011;7693;49.266;7.104;2023-11-19T06:47:16;3.37;;;3.03;;
15183;SDS011;7693;49.266;7.104;2023-11-19T06:49:43;2.73;;;2.63;;
15183;SDS011;7693;49.266;7.104;2023-11-19T06:52:09;2.90;;;2.80;;
15183;SDS011;7693;49.266;7.104;2023-11-19T06:54:35;2.90;;;2.80;;
15183;SDS011;7693;49.266;7.104;2023-11-19T06:57:01;3.67;;;2.70;;
15183;SDS011;7693;49.266;7.104;2023-11-19T06:59:28;4.17;;;2.50;;
15183;SDS011;7693;49.266;7.104;2023-11-19T07:01:54;2.90;;;2.70;;
15183;SDS011;7693;49.266;7.104;2023-11-19T07:04:20;2.67;;;2.47;;
15183;SDS011;7693;49.266;7.104;2023-11-19T07:06:46;2.63;;;2.43;;
15183;SDS011;7693;49.266;7.104;2023-11-19T07:09:13;2.90;;;2.50;;
15183;SDS011;7693;49.266;7.104;2023-11-19T07:11:39;5.30;;;2.60;;
15183;SDS011;7693;49.266;7.104;2023-11-19T07:14:06;3.10;;;2.63;;
15183;SDS011;7693;49.266;7.104;2023-11-19T07:16:33;2.53;;;2.33;;
15183;SDS011;7693;49.266;7.104;2023-11-19T07:19:00;6.57;;;3.03;;
15183;SDS011;7693;49.266;7.104;2023-11-19T07:21:26;2.77;;;2.57;;
15183;SDS011;7693;49.266;7.104;2023-11-19T07:23:53;4.13;;;2.10;;
15183;SDS011;7693;49.266;7.104;2023-11-19T07:26:20;3.03;;;2.73;;
15183;SDS011;7693;49.266;7.104;2023-11-19T07:28:46;2.70;;;2.50;;
15183;SDS011;7693;49.266;7.104;2023-11-19T07:31:12;3.17;;;2.70;;
15183;SDS011;7693;49.266;7.104;2023-11-19T07:33:39;2.67;;;2.47;;
15183;SDS011;7693;49.266;7.104;2023-11-19T07:36:07;2.83;;;2.63;;
15183;SDS011;7693;49.266;7.104;2023-11-19T07:38:36;4.20;;;2.67;;
15183;SDS011;7693;49.266;7.104;2023-11-19T07:41:03;4.20;;;2.90;;
15183;SDS011;7693;49.266;7.104;2023-11-19T07:43:30;3.97;;;2.77;;
15183;SDS011;7693;49.266;7.104;2023-11-19T07:45:56;5.27;;;2.47;;
15183;SDS011;7693;49.266;7.104;2023-11-19T07:48:24;3.10;;;2.80;;
15183;SDS011;7693;49.266;7.104;2023-11-19T07:50:50;2.70;;;2.50;;
15183;SDS011;7693;49.266;7.104;2023-11-19T07:53:16;3.60;;;2.63;;
15183;SDS011;7693;49.266;7.104;2023-11-19T07:55:41;3.90;;;2.33;;
15183;SDS011;7693;49.266;7.104;2023-11-19T07:58:08;8.27;;;7.47;;
15183;SDS011;7693;49.266;7.104;2023-11-19T08:00:35;3.23;;;2.80;;
15183;SDS011;7693;49.266;7.104;2023-11-19T08:03:01;5.10;;;4.60;;
15183;SDS011;7693;49.266;7.104;2023-11-19T08:05:26;5.63;;;4.40;;
15183;SDS011;7693;49.266;7.104;2023-11-19T08:07:52;3.20;;;2.90;;
15183;SDS011;7693;49.266;7.104;2023-11-19T08:10:18;4.20;;;3.90;;
15183;SDS011;7693;49.266;7.104;2023-11-19T08:12:44;6.47;;;5.87;;
15183;SDS011;7693;49.266;7.104;2023-11-19T08:15:10;4.00;;;3.70;;
15183;SDS011;7693;49.266;7.104;2023-11-19T08:17:36;4.93;;;3.30;;
15183;SDS011;7693;49.266;7.104;2023-11-19T08:20:02;3.40;;;3.10;;
15183;SDS011;7693;49.266;7.104;2023-11-19T08:22:29;5.20;;;2.57;;
15183;SDS011;7693;49.266;7.104;2023-11-19T08:24:55;3.53;;;2.87;;
15183;SDS011;7693;49.266;7.104;2023-11-19T08:27:21;3.13;;;2.80;;
15183;SDS011;7693;49.266;7.104;2023-11-19T08:29:53;4.70;;;2.50;;
15183;SDS011;7693;49.266;7.104;2023-11-19T08:32:22;2.70;;;2.60;;
15183;SDS011;7693;49.266;7.104;2023-11-19T08:34:48;2.57;;;2.40;;
15183;SDS011;7693;49.266;7.104;2023-11-19T08:37:14;2.80;;;2.60;;
15183;SDS011;7693;49.266;7.104;2023-11-19T08:39:40;3.90;;;2.67;;
15183;SDS011;7693;49.266;7.104;2023-11-19T08:42:07;3.10;;;2.90;;
15183;SDS011;7693;49.266;7.104;2023-11-19T08:44:32;3.07;;;2.60;;
15183;SDS011;7693;49.266;7.104;2023-11-19T08:46:58;3.97;;;2.13;;
15183;SDS011;7693;49.266;7.104;2023-11-19T08:49:23;2.53;;;2.33;;
15183;SDS011;7693;49.266;7.104;2023-11-19T08:51:49;2.60;;;2.30;;
15183;SDS011;7693;49.266;7.104;2023-11-19T08:54:14;2.37;;;2.13;;
15183;SDS011;7693;49.266;7.104;2023-11-19T08:56:41;2.43;;;2.30;;
15183;SDS011;7693;49.266;7.104;2023-11-19T08:59:06;2.77;;;2.40;;
15183;SDS011;7693;49.266;7.104;2023-11-19T09:01:32;2.30;;;2.10;;
15183;SDS011;7693;49.266;7.104;2023-11-19T09:03:57;5.23;;;2.20;;
15183;SDS011;7693;49.266;7.104;2023-11-19T09:06:23;4.53;;;1.90;;
15183;SDS011;7693;49.266;7.104;2023-11-19T09:08:49;2.60;;;2.00;;
15183;SDS011;7693;49.266;7.104;2023-11-19T09:11:14;2.43;;;2.20;;
15183;SDS011;7693;49.266;7.104;2023-11-19T09:13:41;2.60;;;1.87;;
15183;SDS011;7693;49.266;7.104;2023-11-19T09:16:07;2.10;;;2.00;;
15183;SDS011;7693;49.266;7.104;2023-11-19T09:18:33;4.60;;;2.07;;
15183;SDS011;7693;49.266;7.104;2023-11-19T09:21:00;2.00;;;1.90;;
15183;SDS011;7693;49.266;7.104;2023-11-19T09:23:25;1.87;;;1.77;;
15183;SDS011;7693;49.266;7.104;2023-11-19T09:25:52;3.83;;;2.33;;
15183;SDS011;7693;49.266;7.104;2023-11-19T09:28:18;2.17;;;1.70;;
15183;SDS011;7693;49.266;7.104;2023-11-19T09:30:44;1.97;;;1.80;;
15183;SDS011;7693;49.266;7.104;2023-11-19T09:33:09;2.27;;;2.07;;
15183;SDS011;7693;49.266;7.104;2023-11-19T09:35:35;4.00;;;3.33;;
15183;SDS011;7693;49.266;7.104;2023-11-19T09:38:01;3.53;;;2.73;;
15183;SDS011;7693;49.266;7.104;2023-11-19T09:40:27;1.73;;;1.63;;
15183;SDS011;7693;49.266;7.104;2023-11-19T09:42:53;2.27;;;2.07;;
15183;SDS011;7693;49.266;7.104;2023-11-19T09:45:20;3.97;;;1.73;;
15183;SDS011;7693;49.266;7.104;2023-11-19T09:47:46;6.60;;;1.90;;
15183;SDS011;7693;49.266;7.104;2023-11-19T09:50:16;2.33;;;1.90;;
15183;SDS011;7693;49.266;7.104;2023-11-19T09:52:46;2.13;;;2.03;;
15183;SDS011;7693;49.266;7.104;2023-11-19T09:55:12;3.03;;;1.90;;
15183;SDS011;7693;49.266;7.104;2023-11-19T09:57:38;1.70;;;1.60;;
15183;SDS011;7693;49.266;7.104;2023-11-19T10:00:06;3.57;;;1.70;;
15183;SDS011;7693;49.266;7.104;2023-11-19T10:02:36;1.87;;;1.70;;
15183;SDS011;7693;49.266;7.104;2023-11-19T10:05:11;1.73;;;1.63;;
15183;SDS011;7693;49.266;7.104;2023-11-19T10:07:38;3.03;;;1.67;;
15183;SDS011;7693;49.266;7.104;2023-11-19T10:10:04;7.80;;;2.00;;
15183;SDS011;7693;49.266;7.104;2023-11-19T10:12:30;3.00;;;1.50;;
15183;SDS011;7693;49.266;7.104;2023-11-19T10:14:59;2.73;;;1.67;;
15183;SDS011;7693;49.266;7.104;2023-11-19T10:17:34;2.70;;;1.70;;
15183;SDS011;7693;49.266;7.104;2023-11-19T10:19:59;2.70;;;1.77;;
15183;SDS011;7693;49.266;7.104;2023-11-19T10:22:27;5.17;;;2.27;;
15183;SDS011;7693;49.266;7.104;2023-11-19T10:24:52;5.30;;;2.30;;
15183;SDS011;7693;49.266;7.104;2023-11-19T10:27:18;5.70;;;1.70;;
15183;SDS011;7693;49.266;7.104;2023-11-19T10:29:47;2.00;;;1.80;;
15183;SDS011;7693;49.266;7.104;2023-11-19T10:32:13;2.10;;;2.00;;
15183;SDS011;7693;49.266;7.104;2023-11-19T10:34:40;2.67;;;1.53;;
15183;SDS011;7693;49.266;7.104;2023-11-19T10:37:06;1.77;;;1.50;;
15183;SDS011;7693;49.266;7.104;2023-11-19T10:42:18;2.83;;;1.67;;
15183;SDS011;7693;49.266;7.104;2023-11-19T13:40:39;3.23;;;2.23;;
15183;SDS011;7693;49.266;7.104;2023-11-19T13:43:05;7.83;;;4.47;;
15183;SDS011;7693;49.266;7.104;2023-11-19T13:45:30;2.57;;;2.20;;
15183;SDS011;7693;49.266;7.104;2023-11-19T13:47:57;4.50;;;2.80;;
15183;SDS011;7693;49.266;7.104;2023-11-19T13:50:22;4.00;;;2.90;;
15183;SDS011;7693;49.266;7.104;2023-11-19T13:52:48;3.03;;;1.80;;
15183;SDS011;7693;49.266;7.104;2023-11-19T13:55:14;5.20;;;2.60;;
15183;SDS011;7693;49.266;7.104;2023-11-19T13:57:40;3.37;;;2.20;;
15183;SDS011;7693;49.266;7.104;2023-11-19T15:59:46;10.77;;;3.10;;
15183;SDS011;7693;49.266;7.104;2023-11-19T16:02:13;6.40;;;3.60;;
15183;SDS011;7693;49.266;7.104;2023-11-19T16:04:38;5.93;;;2.83;;
15183;SDS011;7693;49.266;7.104;2023-11-19T16:07:04;9.63;;;4.27;;
15183;SDS011;7693;49.266;7.104;2023-11-19T16:09:30;8.33;;;2.77;;
15183;SDS011;7693;49.266;7.104;2023-11-19T16:11:56;5.70;;;2.80;;
15183;SDS011;7693;49.266;7.104;2023-11-19T16:14:25;7.43;;;3.10;;
15183;SDS011;7693;49.266;7.104;2023-11-19T16:16:51;6.27;;;2.37;;
15183;SDS011;7693;49.266;7.104;2023-11-19T16:19:18;6.30;;;3.37;;
15183;SDS011;7693;49.266;7.104;2023-11-19T16:21:43;6.80;;;2.60;;
15183;SDS011;7693;49.266;7.104;2023-11-19T16:24:09;9.80;;;3.17;;
15183;SDS011;7693;49.266;7.104;2023-11-19T16:26:35;5.77;;;2.47;;
15183;SDS011;7693;49.266;7.104;2023-11-19T16:29:02;6.57;;;2.83;;
15183;SDS011;7693;49.266;7.104;2023-11-19T16:31:28;7.20;;;3.20;;
15183;SDS011;7693;49.266;7.104;2023-11-19T16:33:53;9.77;;;4.07;;
15183;SDS011;7693;49.266;7.104;2023-11-19T16:36:19;7.63;;;3.37;;
15183;SDS011;7693;49.266;7.104;2023-11-19T16:38:45;7.03;;;3.37;;
15183;SDS011;7693;49.266;7.104;2023-11-19T16:41:19;7.27;;;3.53;;
15183;SDS011;7693;49.266;7.104;2023-11-19T16:43:49;7.13;;;3.20;;
15183;SDS011;7693;49.266;7.104;2023-11-19T16:46:16;5.87;;;2.70;;
15183;SDS011;7693;49.266;7.104;2023-11-19T16:48:45;6.77;;;2.90;;
15183;SDS011;7693;49.266;7.104;2023-11-19T16:51:14;3.03;;;2.73;;
15183;SDS011;7693;49.266;7.104;2023-11-19T16:53:43;6.07;;;2.80;;
15183;SDS011;7693;49.266;7.104;2023-11-19T16:56:13;5.37;;;2.47;;
15183;SDS011;7693;49.266;7.104;2023-11-19T16:58:39;9.60;;;2.60;;
15183;SDS011;7693;49.266;7.104;2023-11-19T17:01:07;7.23;;;3.27;;
15183;SDS011;7693;49.266;7.104;2023-11-19T17:03:37;5.13;;;3.17;;
15183;SDS011;7693;49.266;7.104;2023-11-19T17:06:03;6.73;;;3.10;;
15183;SDS011;7693;49.266;7.104;2023-11-19T17:08:30;8.13;;;3.10;;
15183;SDS011;7693;49.266;7.104;2023-11-19T17:11:01;9.43;;;3.67;;
15183;SDS011;7693;49.266;7.104;2023-11-19T17:13:30;8.77;;;2.90;;
15183;SDS011;7693;49.266;7.104;2023-11-19T17:15:56;9.60;;;3.17;;
15183;SDS011;7693;49.266;7.104;2023-11-19T17:18:22;6.87;;;2.97;;
15183;SDS011;7693;49.266;7.104;2023-11-19T17:20:48;8.00;;;2.73;;
15183;SDS011;7693;49.266;7.104;2023-11-19T17:23:14;8.07;;;3.27;;
15183;SDS011;7693;49.266;7.104;2023-11-19T17:25:40;8.87;;;3.20;;
15183;SDS011;7693;49.266;7.104;2023-11-19T17:28:06;7.70;;;3.20;;
15183;SDS011;7693;49.266;7.104;2023-11-19T17:30:35;8.83;;;2.90;;
15183;SDS011;7693;49.266;7.104;2023-11-19T17:33:01;8.60;;;3.17;;
15183;SDS011;7693;49.266;7.104;2023-11-19T17:35:29;9.90;;;3.23;;
15183;SDS011;7693;49.266;7.104;2023-11-19T17:37:55;8.77;;;2.80;;
15183;SDS011;7693;49.266;7.104;2023-11-19T17:40:21;9.97;;;3.87;;
15183;SDS011;7693;49.266;7.104;2023-11-19T17:42:48;7.77;;;2.97;;
15183;SDS011;7693;49.266;7.104;2023-11-19T17:45:14;7.00;;;4.13;;
15183;SDS011;7693;49.266;7.104;2023-11-19T17:47:40;11.17;;;3.73;;
15183;SDS011;7693;49.266;7.104;2023-11-19T17:50:06;8.33;;;3.03;;
15183;SDS011;7693;49.266;7.104;2023-11-19T17:52:34;9.17;;;3.17;;
15183;SDS011;7693;49.266;7.104;2023-11-19T17:55:00;5.07;;;2.80;;
15183;SDS011;7693;49.266;7.104;2023-11-19T17:57:29;18.27;;;9.30;;
15183;SDS011;7693;49.266;7.104;2023-11-19T17:59:55;7.63;;;3.33;;
15183;SDS011;7693;49.266;7.104;2023-11-19T18:02:20;7.47;;;3.20;;
15183;SDS011;7693;49.266;7.104;2023-11-19T18:04:46;10.33;;;4.60;;
15183;SDS011;7693;49.266;7.104;2023-11-19T18:07:13;9.57;;;2.97;;
15183;SDS011;7693;49.266;7.104;2023-11-19T18:09:39;8.43;;;4.10;;
15183;SDS011;7693;49.266;7.104;2023-11-19T18:12:05;8.07;;;3.30;;
15183;SDS011;7693;49.266;7.104;2023-11-19T18:14:31;13.10;;;3.33;;
15183;SDS011;7693;49.266;7.104;2023-11-19T18:16:56;8.10;;;3.40;;
15183;SDS011;7693;49.266;7.104;2023-11-19T18:19:22;12.63;;;4.30;;
15183;SDS011;7693;49.266;7.104;2023-11-19T18:21:48;9.37;;;3.77;;
15183;SDS011;7693;49.266;7.104;2023-11-19T18:24:14;6.90;;;3.07;;
15183;SDS011;7693;49.266;7.104;2023-11-19T18:26:41;9.00;;;3.53;;
15183;SDS011;7693;49.266;7.104;2023-11-19T18:29:06;10.57;;;3.30;;
15183;SDS011;7693;49.266;7.104;2023-11-19T18:31:32;14.57;;;3.50;;
15183;SDS011;7693;49.266;7.104;2023-11-19T18:33:58;8.07;;;3.30;;
15183;SDS011;7693;49.266;7.104;2023-11-19T18:36:24;9.87;;;3.37;;
15183;SDS011;7693;49.266;7.104;2023-11-19T18:38:50;9.87;;;3.50;;
15183;SDS011;7693;49.266;7.104;2023-11-19T18:41:15;7.33;;;3.30;;
15183;SDS011;7693;49.266;7.104;2023-11-19T18:43:41;9.40;;;3.40;;
15183;SDS011;7693;49.266;7.104;2023-11-19T18:46:07;11.80;;;3.10;;
15183;SDS011;7693;49.266;7.104;2023-11-19T18:48:33;10.63;;;3.50;;
15183;SDS011;7693;49.266;7.104;2023-11-19T18:51:00;10.43;;;3.70;;
15183;SDS011;7693;49.266;7.104;2023-11-19T18:53:26;19.03;;;4.10;;
15183;SDS011;7693;49.266;7.104;2023-11-19T18:55:52;17.83;;;4.20;;
15183;SDS011;7693;49.266;7.104;2023-11-19T18:58:17;8.37;;;3.10;;
15183;SDS011;7693;49.266;7.104;2023-11-19T19:00:43;13.30;;;3.43;;
15183;SDS011;7693;49.266;7.104;2023-11-19T19:03:09;8.37;;;3.13;;
15183;SDS011;7693;49.266;7.104;2023-11-19T19:05:38;13.17;;;3.87;;
15183;SDS011;7693;49.266;7.104;2023-11-19T19:08:04;16.00;;;4.50;;
15183;SDS011;7693;49.266;7.104;2023-11-19T19:10:30;14.03;;;4.20;;
15183;SDS011;7693;49.266;7.104;2023-11-19T19:12:56;10.83;;;3.90;;
15183;SDS011;7693;49.266;7.104;2023-11-19T19:15:21;17.03;;;3.80;;
15183;SDS011;7693;49.266;7.104;2023-11-19T19:17:47;8.13;;;3.83;;
15183;SDS011;7693;49.266;7.104;2023-11-19T19:20:14;9.33;;;4.20;;
15183;SDS011;7693;49.266;7.104;2023-11-19T19:22:40;11.10;;;3.50;;
15183;SDS011;7693;49.266;7.104;2023-11-19T19:25:07;13.90;;;4.13;;
15183;SDS011;7693;49.266;7.104;2023-11-19T19:27:33;9.50;;;3.47;;
15183;SDS011;7693;49.266;7.104;2023-11-19T19:29:59;12.53;;;4.07;;
15183;SDS011;7693;49.266;7.104;2023-11-19T19:32:24;11.97;;;4.17;;
15183;SDS011;7693;49.266;7.104;2023-11-19T19:34:50;11.53;;;3.50;;
15183;SDS011;7693;49.266;7.104;2023-11-19T19:37:15;15.00;;;4.33;;
15183;SDS011;7693;49.266;7.104;2023-11-19T19:39:41;9.33;;;3.70;;
15183;SDS011;7693;49.266;7.104;2023-11-19T19:42:07;11.23;;;4.10;;
15183;SDS011;7693;49.266;7.104;2023-11-19T19:44:34;13.33;;;4.10;;
15183;SDS011;7693;49.266;7.104;2023-11-19T19:47:00;11.03;;;3.90;;
15183;SDS011;7693;49.266;7.104;2023-11-19T19:49:26;10.73;;;4.10;;
15183;SDS011;7693;49.266;7.104;2023-11-19T19:51:54;10.53;;;3.90;;
15183;SDS011;7693;49.266;7.104;2023-11-19T19:54:20;13.30;;;3.73;;
15183;SDS011;7693;49.266;7.104;2023-11-19T19:56:46;13.10;;;4.10;;
15183;SDS011;7693;49.266;7.104;2023-11-19T19:59:12;14.53;;;4.07;;
15183;SDS011;7693;49.266;7.104;2023-11-19T20:01:38;8.20;;;3.23;;
15183;SDS011;7693;49.266;7.104;2023-11-19T20:04:03;12.77;;;4.77;;
15183;SDS011;7693;49.266;7.104;2023-11-19T20:06:35;14.53;;;4.10;;
15183;SDS011;7693;49.266;7.104;2023-11-19T20:09:02;11.60;;;3.63;;
15183;SDS011;7693;49.266;7.104;2023-11-19T20:11:28;13.47;;;4.10;;
15183;SDS011;7693;49.266;7.104;2023-11-19T20:13:58;12.07;;;3.60;;
15183;SDS011;7693;49.266;7.104;2023-11-19T20:16:24;10.53;;;4.00;;
15183;SDS011;7693;49.266;7.104;2023-11-19T20:18:50;15.77;;;4.63;;
15183;SDS011;7693;49.266;7.104;2023-11-19T20:21:15;10.77;;;3.80;;
15183;SDS011;7693;49.266;7.104;2023-11-19T20:23:41;14.53;;;3.87;;
15183;SDS011;7693;49.266;7.104;2023-11-19T20:26:06;15.07;;;4.60;;
15183;SDS011;7693;49.266;7.104;2023-11-19T20:28:32;11.33;;;3.40;;
15183;SDS011;7693;49.266;7.104;2023-11-19T20:30:58;10.80;;;3.53;;
15183;SDS011;7693;49.266;7.104;2023-11-19T20:33:23;12.60;;;3.93;;
15183;SDS011;7693;49.266;7.104;2023-11-19T20:35:49;13.17;;;3.57;;
15183;SDS011;7693;49.266;7.104;2023-11-19T20:38:15;15.03;;;4.47;;
15183;SDS011;7693;49.266;7.104;2023-11-19T20:40:41;9.33;;;3.40;;
15183;SDS011;7693;49.266;7.104;2023-11-19T20:43:07;12.07;;;4.17;;
15183;SDS011;7693;49.266;7.104;2023-11-19T20:45:32;12.57;;;4.43;;
15183;SDS011;7693;49.266;7.104;2023-11-19T20:47:58;11.40;;;3.40;;
15183;SDS011;7693;49.266;7.104;2023-11-19T20:50:23;12.93;;;4.23;;
15183;SDS011;7693;49.266;7.104;2023-11-19T20:52:51;14.17;;;4.23;;
15183;SDS011;7693;49.266;7.104;2023-11-19T20:55:18;15.83;;;4.30;;
15183;SDS011;7693;49.266;7.104;2023-11-19T20:57:44;16.93;;;4.63;;
15183;SDS011;7693;49.266;7.104;2023-11-19T21:00:10;13.13;;;3.83;;
15183;SDS011;7693;49.266;7.104;2023-11-19T21:02:37;12.20;;;3.97;;
15183;SDS011;7693;49.266;7.104;2023-11-19T21:05:04;13.40;;;3.90;;
15183;SDS011;7693;49.266;7.104;2023-11-19T21:07:31;16.00;;;4.43;;
15183;SDS011;7693;49.266;7.104;2023-11-19T21:09:57;14.87;;;4.27;;
15183;SDS011;7693;49.266;7.104;2023-11-19T21:12:23;14.53;;;4.10;;
15183;SDS011;7693;49.266;7.104;2023-11-19T21:14:48;7.30;;;3.20;;
15183;SDS011;7693;49.266;7.104;2023-11-19T21:17:14;16.27;;;4.03;;
15183;SDS011;7693;49.266;7.104;2023-11-19T21:19:40;14.03;;;4.00;;
15183;SDS011;7693;49.266;7.104;2023-11-19T21:22:07;16.37;;;4.00;;
15183;SDS011;7693;49.266;7.104;2023-11-19T21:24:34;13.43;;;4.43;;
15183;SDS011;7693;49.266;7.104;2023-11-19T21:27:00;11.73;;;3.57;;
15183;SDS011;7693;49.266;7.104;2023-11-19T21:29:25;16.17;;;4.60;;
15183;SDS011;7693;49.266;7.104;2023-11-19T21:31:51;9.90;;;3.37;;
15183;SDS011;7693;49.266;7.104;2023-11-19T21:34:17;12.57;;;3.93;;
15183;SDS011;7693;49.266;7.104;2023-11-19T21:36:42;16.40;;;4.10;;
15183;SDS011;7693;49.266;7.104;2023-11-19T21:39:08;11.07;;;3.80;;
15183;SDS011;7693;49.266;7.104;2023-11-19T21:41:34;14.43;;;4.03;;
15183;SDS011;7693;49.266;7.104;2023-11-19T21:44:00;17.57;;;3.97;;
15183;SDS011;7693;49.266;7.104;2023-11-19T21:46:25;14.33;;;3.63;;
15183;SDS011;7693;49.266;7.104;2023-11-19T21:48:51;14.00;;;4.13;;
15183;SDS011;7693;49.266;7.104;2023-11-19T21:51:17;10.50;;;3.37;;
15183;SDS011;7693;49.266;7.104;2023-11-19T21:53:42;15.40;;;4.80;;
15183;SDS011;7693;49.266;7.104;2023-11-19T21:56:08;14.07;;;3.83;;
15183;SDS011;7693;49.266;7.104;2023-11-19T21:58:34;10.50;;;3.83;;
15183;SDS011;7693;49.266;7.104;2023-11-19T22:00:59;10.43;;;3.87;;
15183;SDS011;7693;49.266;7.104;2023-11-19T22:03:26;12.20;;;4.03;;
15183;SDS011;7693;49.266;7.104;2023-11-19T22:05:52;9.93;;;3.80;;
15183;SDS011;7693;49.266;7.104;2023-11-19T22:08:17;11.37;;;3.73;;
15183;SDS011;7693;49.266;7.104;2023-11-19T22:10:43;16.50;;;4.37;;
15183;SDS011;7693;49.266;7.104;2023-11-19T22:13:09;11.07;;;3.77;;
15183;SDS011;7693;49.266;7.104;2023-11-19T22:15:35;12.13;;;3.73;;
15183;SDS011;7693;49.266;7.104;2023-11-19T22:18:00;10.73;;;3.50;;
15183;SDS011;7693;49.266;7.104;2023-11-19T22:20:26;13.30;;;3.77;;
15183;SDS011;7693;49.266;7.104;2023-11-19T22:22:53;14.80;;;4.40;;
15183;SDS011;7693;49.266;7.104;2023-11-19T22:25:19;16.27;;;4.07;;
15183;SDS011;7693;49.266;7.104;2023-11-19T22:27:49;15.33;;;4.30;;
15183;SDS011;7693;49.266;7.104;2023-11-19T22:30:15;12.93;;;3.90;;
